Terminal Aerodrome Forecast
Issued by NWS

Home | Current Version | Previous Version | Graphics & Text | Print | Product List | Glossary On
Versions: 1 2 3 4 5 6 7 8 9 10 11 12 13 14 15 16 17 18 19 20 21 22 23 24 25 26
590
FTUS43 KLOT 220520
TAFMDW
TAF
KMDW 220520Z 2206/2306 03017G28KT P6SM BKN025
     FM221500 05012KT P6SM BKN030
     FM221900 07010KT P6SM FEW035 SCT250
     FM230100 10008KT P6SM SCT150 BKN250=

USA.gov is the U.S. government's official web portal to all federal, state and local government web resources and services.